This is the latest recevied weather packets stored in our database for station/object JF7ELG-13. If no packets are shown the sender has not sent any weather packets the latest 10 day(s).
| Time | Temp. | Humidity | Pressure | Rain* | Wind** | Luminosity | Snow |
|---|---|---|---|---|---|---|---|
| 1777776491 | 21.67° C | 72% | 1006.5 hPa | 0 mm | - | - | - |
| 1777775609 | 22.22° C | 71% | 1007 hPa | 0 mm | - | - | - |
| 1777774695 | 21.67° C | 71% | 1007.5 hPa | 0 mm | - | - | - |
| 1777773810 | 22.22° C | 70% | 1007.2 hPa | 0 mm | - | - | - |
| 1777772914 | 21.67° C | 71% | 1008.2 hPa | 0 mm | - | - | - |
| 1777772026 | 21.11° C | 70% | 1008.6 hPa | 0 mm | - | - | - |
| 1777771120 | 21.11° C | 70% | 1008.8 hPa | 0 mm | - | - | - |
| 1777770196 | 20.56° C | 70% | 1008.9 hPa | 0 mm | - | - | - |
| 1777769306 | 19.44° C | 73% | 1009.4 hPa | 0 mm | - | - | - |
| 1777768417 | 18.33° C | 72% | 1009.8 hPa | 0 mm | - | - | - |
| 1777767526 | 18.33° C | 72% | 1010.1 hPa | 0 mm | - | - | - |
| 1777766599 | 17.78° C | 73% | 1010.3 hPa | 0 mm | - | - | - |
| 1777765718 | 17.78° C | 74% | 1010.5 hPa | 0 mm | - | - | - |
| 1777764803 | 17.22° C | 76% | 1010.6 hPa | 0 mm | - | - | - |
| 1777763930 | 16.67° C | 78% | 1010.5 hPa | 0 mm | - | - | - |
| 1777763019 | 16.11° C | 76% | 1010.6 hPa | 0 mm | - | - | - |
| 1777762107 | 15.56° C | 75% | 1010.6 hPa | 0 mm | - | - | - |
| 1777761240 | 15.56° C | 74% | 1010.4 hPa | 0 mm | - | - | - |
| 1777760328 | 15.56° C | 71% | 1010.3 hPa | 0 mm | - | - | - |
| 1777759418 | 14.44° C | 76% | 1010.4 hPa | 0 mm | - | - | - |
| 1777758501 | 13.89° C | 75% | 1010.4 hPa | 0 mm | - | - | - |
| 1777757611 | 12.78° C | 82% | 1010.3 hPa | 0 mm | - | - | - |
| 1777756717 | 12.22° C | 82% | 1010.3 hPa | 0 mm | - | - | - |
| 1777755831 | 12.22° C | 79% | 1010 hPa | 0 mm | - | - | - |
| 1777754905 | 12.22° C | 74% | 1010 hPa | 0 mm | - | - | - |
* Rain latest hour (hover to see other rain measurements)
** Current wind speed in m/s (hover to see current wind gust speed)